createdAt,value
2019-03-31T00:00:34.550Z,99757.81
2019-03-31T00:03:03.007Z,99753.63
2019-03-31T00:05:31.346Z,99758.11
2019-03-31T00:07:59.730Z,99755.02
2019-03-31T00:10:28.079Z,99752.93
2019-03-31T00:12:56.450Z,99753.78
2019-03-31T00:15:24.798Z,99755.41
2019-03-31T00:17:53.173Z,99751.89
2019-03-31T00:20:21.515Z,99760.58
2019-03-31T00:22:49.891Z,99751.00
2019-03-31T00:25:18.309Z,99756.38
2019-03-31T00:27:46.653Z,99746.57
2019-03-31T00:30:15.098Z,99750.13
2019-03-31T00:32:43.496Z,99748.75
2019-03-31T00:35:11.865Z,99754.59
2019-03-31T00:37:40.212Z,99746.88
2019-03-31T00:40:08.957Z,99752.25
2019-03-31T00:42:37.306Z,99744.80
2019-03-31T00:45:07.273Z,99748.58
2019-03-31T00:47:35.984Z,99745.61
2019-03-31T00:50:06.189Z,99746.47
2019-03-31T00:52:34.521Z,99748.58
2019-03-31T00:55:03.137Z,99748.16
2019-03-31T00:57:31.489Z,99741.28
2019-03-31T00:59:59.870Z,99738.16
2019-03-31T01:02:29.920Z,99739.37
2019-03-31T01:04:58.305Z,99738.42
2019-03-31T01:07:27.288Z,99737.08
2019-03-31T01:09:57.039Z,99735.61
2019-03-31T01:12:26.989Z,99736.10
2019-03-31T01:14:55.365Z,99738.63
2019-03-31T01:17:23.849Z,99733.30
2019-03-31T01:19:53.152Z,99742.73
2019-03-31T01:22:21.553Z,99743.56
2019-03-31T01:24:49.919Z,99735.22
2019-03-31T01:27:18.326Z,99734.80
2019-03-31T01:29:46.763Z,99738.23
2019-03-31T01:32:15.252Z,99734.58
2019-03-31T01:34:43.623Z,99736.25
2019-03-31T01:37:12.601Z,99734.72
2019-03-31T01:39:41.049Z,99734.18
2019-03-31T01:42:09.458Z,99738.84
2019-03-31T01:44:37.834Z,99738.57
2019-03-31T01:47:06.511Z,99739.21
2019-03-31T01:49:34.959Z,99741.42
2019-03-31T01:52:03.370Z,99737.80
2019-03-31T01:54:31.698Z,99741.63
2019-03-31T01:57:00.075Z,99739.21
2019-03-31T01:59:28.413Z,99737.63
2019-03-31T02:02:03.946Z,99734.69
2019-03-31T02:04:26.988Z,99735.52
2019-03-31T02:06:55.424Z,99736.09
2019-03-31T02:09:23.831Z,99731.42
2019-03-31T02:11:52.205Z,99732.80
2019-03-31T02:14:20.548Z,99730.36
2019-03-31T02:16:48.983Z,99739.28
2019-03-31T02:19:17.391Z,99732.56
2019-03-31T02:21:45.754Z,99729.31
2019-03-31T02:24:14.161Z,99734.58
2019-03-31T02:26:42.534Z,99731.56
2019-03-31T02:29:10.872Z,99734.83
2019-03-31T02:31:39.238Z,99729.58
2019-03-31T02:34:07.590Z,99734.37
2019-03-31T02:36:35.955Z,99737.59
2019-03-31T02:39:05.538Z,99733.19
2019-03-31T02:41:33.909Z,99737.17
2019-03-31T02:44:02.485Z,99736.64
2019-03-31T02:46:30.837Z,99733.14
2019-03-31T02:48:59.246Z,99731.61
2019-03-31T02:51:27.703Z,99735.39
2019-03-31T02:53:56.097Z,99733.78
2019-03-31T02:56:24.834Z,99735.54
2019-03-31T02:58:55.035Z,99733.66
2019-03-31T03:01:25.183Z,99729.02
2019-03-31T03:03:53.793Z,99728.95
2019-03-31T03:06:22.257Z,99722.28
2019-03-31T03:08:50.635Z,99725.68
2019-03-31T03:11:19.345Z,99729.34
2019-03-31T03:13:49.329Z,99722.81
2019-03-31T03:16:18.808Z,99724.84
2019-03-31T03:18:47.802Z,99719.02
2019-03-31T03:21:16.412Z,99720.58
2019-03-31T03:23:44.798Z,99724.12
2019-03-31T03:26:13.263Z,99727.92
2019-03-31T03:28:41.673Z,99720.27
2019-03-31T03:31:15.341Z,99719.41
2019-03-31T03:33:40.181Z,99725.48
2019-03-31T03:36:08.561Z,99726.77
2019-03-31T03:38:36.901Z,99725.38
2019-03-31T03:41:05.344Z,99729.84
2019-03-31T03:43:33.821Z,99724.80
2019-03-31T03:46:02.216Z,99726.70
2019-03-31T03:48:30.548Z,99732.77
2019-03-31T03:50:58.983Z,99724.87
2019-03-31T03:53:27.439Z,99729.14
2019-03-31T03:55:55.826Z,99722.67
2019-03-31T03:58:24.165Z,99725.63
2019-03-31T04:00:52.553Z,99733.23
2019-03-31T04:03:30.203Z,99730.61
2019-03-31T04:05:50.997Z,99725.99
2019-03-31T04:08:19.330Z,99724.11
2019-03-31T04:10:50.879Z,99722.80
2019-03-31T04:13:19.221Z,99722.27
2019-03-31T04:15:47.559Z,99727.74
2019-03-31T04:18:15.966Z,99724.80
2019-03-31T04:20:44.285Z,99727.58
2019-03-31T04:23:12.661Z,99727.74
2019-03-31T04:25:41.005Z,99732.22
2019-03-31T04:28:09.376Z,99725.64
2019-03-31T04:30:37.716Z,99722.03
2019-03-31T04:33:06.091Z,99723.47
2019-03-31T04:35:34.507Z,99722.28
2019-03-31T04:38:02.888Z,99722.73
2019-03-31T04:40:31.645Z,99723.26
2019-03-31T04:43:00.018Z,99725.98
2019-03-31T04:45:28.373Z,99725.20
2019-03-31T04:47:56.832Z,99725.63
2019-03-31T04:50:25.237Z,99725.47
2019-03-31T04:52:53.614Z,99729.55
2019-03-31T04:55:21.950Z,99726.98
2019-03-31T04:57:50.327Z,99720.34
2019-03-31T05:00:18.748Z,99723.59
2019-03-31T05:02:47.112Z,99728.22
2019-03-31T05:05:15.456Z,99732.08
2019-03-31T05:07:43.891Z,99735.00
2019-03-31T05:10:12.307Z,99729.93
2019-03-31T05:12:40.685Z,99727.45
2019-03-31T05:15:09.163Z,99727.66
2019-03-31T05:17:37.529Z,99729.44
2019-03-31T05:20:06.613Z,99727.16
2019-03-31T05:22:34.984Z,99730.22
2019-03-31T05:25:04.163Z,99728.26
2019-03-31T05:27:32.529Z,99726.59
2019-03-31T05:30:00.887Z,99735.44
2019-03-31T05:32:29.332Z,99736.23
2019-03-31T05:34:57.668Z,99732.20
2019-03-31T05:37:26.041Z,99734.98
2019-03-31T05:39:54.454Z,99736.30
2019-03-31T05:42:22.830Z,99726.83
2019-03-31T05:44:51.164Z,99737.72
2019-03-31T05:47:19.528Z,99736.38
2019-03-31T05:49:47.905Z,99740.13
2019-03-31T05:52:16.318Z,99739.84
2019-03-31T05:54:44.727Z,99732.08
2019-03-31T05:57:13.154Z,99738.43
2019-03-31T05:59:41.488Z,99739.47
2019-03-31T06:02:09.850Z,99742.95
2019-03-31T06:04:38.186Z,99745.67
2019-03-31T06:07:06.552Z,99745.33
2019-03-31T06:09:34.963Z,99742.97
2019-03-31T06:12:03.296Z,99741.50
2019-03-31T06:14:31.677Z,99741.27
2019-03-31T06:17:00.017Z,99741.97
2019-03-31T06:19:28.383Z,99743.68
2019-03-31T06:21:56.742Z,99742.37
2019-03-31T06:24:25.095Z,99738.54
2019-03-31T06:26:53.490Z,99736.39
2019-03-31T06:29:21.869Z,99743.58
2019-03-31T06:31:50.221Z,99746.70
2019-03-31T06:34:18.589Z,99747.84
2019-03-31T06:36:46.923Z,99747.63
2019-03-31T06:39:15.299Z,99742.73
2019-03-31T06:41:43.633Z,99743.45
2019-03-31T06:44:12.002Z,99742.55
2019-03-31T06:46:40.339Z,99743.73
2019-03-31T06:49:08.709Z,99738.22
2019-03-31T06:51:37.128Z,99743.02
2019-03-31T06:54:05.511Z,99739.52
2019-03-31T06:56:33.850Z,99740.51
2019-03-31T06:59:02.297Z,99745.28
2019-03-31T07:01:30.694Z,99737.56
2019-03-31T07:03:59.133Z,99742.01
2019-03-31T07:06:27.472Z,99749.20
2019-03-31T07:08:55.912Z,99747.59
2019-03-31T07:11:24.331Z,99750.45
2019-03-31T07:13:52.694Z,99743.67
2019-03-31T07:16:21.040Z,99741.25
2019-03-31T07:18:49.552Z,99745.72
2019-03-31T07:21:17.882Z,99740.75
2019-03-31T07:23:46.263Z,99742.63
2019-03-31T07:26:14.671Z,99749.27
2019-03-31T07:28:43.102Z,99741.54
2019-03-31T07:31:11.451Z,99748.34
2019-03-31T07:33:39.820Z,99740.38
2019-03-31T07:36:08.149Z,99738.25
2019-03-31T07:38:39.327Z,99740.81
2019-03-31T07:41:12.867Z,99740.52
2019-03-31T07:43:37.835Z,99735.44
2019-03-31T07:46:06.168Z,99744.24
2019-03-31T07:48:34.816Z,99742.10
2019-03-31T07:51:03.561Z,99742.03
2019-03-31T07:53:31.936Z,99744.87
2019-03-31T07:56:00.271Z,99740.34
2019-03-31T07:58:28.647Z,99746.81
2019-03-31T08:00:57.156Z,99738.95
2019-03-31T08:03:25.527Z,99735.02
2019-03-31T08:05:53.936Z,99735.47
2019-03-31T08:08:22.310Z,99740.94
2019-03-31T08:10:50.638Z,99737.64
2019-03-31T08:13:19.048Z,99732.61
2019-03-31T08:15:47.543Z,99729.33
2019-03-31T08:18:16.351Z,99732.95
2019-03-31T08:20:44.759Z,99732.72
2019-03-31T08:23:13.199Z,99736.19
2019-03-31T08:25:41.570Z,99737.42
2019-03-31T08:28:09.913Z,99739.25
2019-03-31T08:30:38.462Z,99741.16
2019-03-31T08:33:07.098Z,99743.52
2019-03-31T08:35:46.605Z,99740.73
2019-03-31T08:38:05.974Z,99737.55
2019-03-31T08:40:34.518Z,99738.25
2019-03-31T08:43:03.286Z,99736.70
2019-03-31T08:45:31.998Z,99732.45
2019-03-31T08:48:00.767Z,99733.59
2019-03-31T08:50:29.209Z,99735.59
2019-03-31T08:52:57.560Z,99726.98
2019-03-31T08:55:26.092Z,99729.48
2019-03-31T08:57:54.435Z,99732.86
2019-03-31T09:00:27.466Z,99733.34
2019-03-31T09:02:56.302Z,99732.63
2019-03-31T09:05:24.680Z,99727.95
2019-03-31T09:07:53.177Z,99728.68
2019-03-31T09:10:21.629Z,99725.08
2019-03-31T09:12:55.155Z,99722.28
2019-03-31T09:15:23.553Z,99720.47
2019-03-31T09:17:54.412Z,99720.39
2019-03-31T09:20:23.167Z,99719.87
2019-03-31T09:22:51.513Z,99716.70
2019-03-31T09:25:20.319Z,99716.92
2019-03-31T09:27:48.836Z,99712.55
2019-03-31T09:30:17.438Z,99710.01
2019-03-31T09:32:45.784Z,99708.07
2019-03-31T09:35:15.805Z,99714.79
2019-03-31T09:37:44.232Z,99716.62
2019-03-31T09:40:13.041Z,99711.15
2019-03-31T09:42:41.461Z,99706.30
2019-03-31T09:45:11.466Z,99708.41
2019-03-31T09:47:39.956Z,99698.33
2019-03-31T09:50:10.933Z,99698.98
2019-03-31T09:52:41.169Z,99691.95
2019-03-31T09:55:11.750Z,99702.09
2019-03-31T09:57:40.477Z,99693.84
2019-03-31T10:00:12.108Z,99690.14
2019-03-31T10:02:40.799Z,99692.33
2019-03-31T10:05:09.608Z,99695.59
2019-03-31T10:07:38.393Z,99694.23
2019-03-31T10:10:08.407Z,99688.00
2019-03-31T10:12:36.766Z,99688.52
2019-03-31T10:15:07.929Z,99681.32
2019-03-31T10:17:36.377Z,99689.45
2019-03-31T10:20:06.051Z,99680.66
2019-03-31T10:22:34.390Z,99678.11
2019-03-31T10:25:02.860Z,99679.78
2019-03-31T10:27:31.199Z,99683.39
2019-03-31T10:29:59.572Z,99673.86
2019-03-31T10:32:27.914Z,99674.52
2019-03-31T10:34:56.287Z,99671.44
2019-03-31T10:37:24.632Z,99676.71
2019-03-31T10:39:53.007Z,99665.41
2019-03-31T10:42:21.346Z,99665.26
2019-03-31T10:44:49.960Z,99667.16
2019-03-31T10:47:18.301Z,99659.52
2019-03-31T10:49:46.896Z,99660.53
2019-03-31T10:52:15.241Z,99659.08
2019-03-31T10:54:43.581Z,99659.08
2019-03-31T10:57:11.961Z,99654.22
2019-03-31T10:59:40.409Z,99653.69
2019-03-31T11:02:08.786Z,99657.48
2019-03-31T11:04:37.126Z,99654.48
2019-03-31T11:07:05.658Z,99649.70
2019-03-31T11:09:34.457Z,99650.85
2019-03-31T11:12:03.311Z,99647.30
2019-03-31T11:14:31.714Z,99653.61
2019-03-31T11:17:00.087Z,99653.20
2019-03-31T11:19:28.494Z,99651.02
2019-03-31T11:22:13.532Z,99652.20
2019-03-31T11:24:41.873Z,99648.03
2019-03-31T11:27:10.254Z,99648.25
2019-03-31T11:29:38.595Z,99643.26
2019-03-31T11:32:07.039Z,99646.99
2019-03-31T11:34:40.815Z,99646.77
2019-03-31T11:37:13.849Z,99651.72
2019-03-31T11:39:39.276Z,99640.72
2019-03-31T11:42:07.720Z,99646.20
2019-03-31T11:44:36.059Z,99642.86
2019-03-31T11:47:04.573Z,99642.80
2019-03-31T11:49:32.915Z,99638.78
2019-03-31T11:52:01.296Z,99631.38
2019-03-31T11:54:29.635Z,99633.20
2019-03-31T11:56:58.069Z,99633.31
2019-03-31T11:59:26.410Z,99631.30
2019-03-31T12:01:54.781Z,99630.70
2019-03-31T12:04:23.124Z,99631.83
2019-03-31T12:06:51.498Z,99620.50
2019-03-31T12:09:19.977Z,99619.49
2019-03-31T12:11:48.558Z,99618.80
2019-03-31T12:14:16.893Z,99616.83
2019-03-31T12:16:45.336Z,99618.02
2019-03-31T12:19:34.593Z,99612.20
2019-03-31T12:22:02.951Z,99604.86
2019-03-31T12:24:31.297Z,99600.97
2019-03-31T12:26:59.752Z,99607.62
2019-03-31T12:29:28.093Z,99603.50
2019-03-31T12:31:56.603Z,99604.63
2019-03-31T12:34:25.021Z,99599.52
2019-03-31T12:36:53.526Z,99600.66
2019-03-31T12:39:21.875Z,99595.83
2019-03-31T12:41:50.450Z,99598.42
2019-03-31T12:44:18.904Z,99591.22
2019-03-31T12:46:47.277Z,99588.22
2019-03-31T12:49:15.688Z,99582.33
2019-03-31T12:51:44.227Z,99586.39
2019-03-31T12:54:12.576Z,99582.81
2019-03-31T12:56:41.095Z,99578.92
2019-03-31T12:59:09.503Z,99570.04
2019-03-31T13:01:37.915Z,99572.64
2019-03-31T13:04:06.250Z,99571.14
2019-03-31T13:06:34.617Z,99568.98
2019-03-31T13:09:04.597Z,99571.97
2019-03-31T13:11:33.081Z,99563.54
2019-03-31T13:14:01.424Z,99565.47
2019-03-31T13:16:29.861Z,99558.05
2019-03-31T13:18:59.603Z,99553.92
2019-03-31T13:21:28.939Z,99550.45
2019-03-31T13:23:57.309Z,99547.50
2019-03-31T13:26:25.697Z,99544.88
2019-03-31T13:28:54.184Z,99542.36
2019-03-31T13:31:22.556Z,99542.16
2019-03-31T13:33:50.974Z,99540.89
2019-03-31T13:36:19.351Z,99543.75
2019-03-31T13:38:48.578Z,99539.14
2019-03-31T13:41:17.037Z,99538.64
2019-03-31T13:43:45.451Z,99534.45
2019-03-31T13:46:14.283Z,99533.23
2019-03-31T13:48:42.760Z,99531.09
2019-03-31T13:51:11.360Z,99523.72
2019-03-31T13:53:39.879Z,99526.06
2019-03-31T13:56:08.506Z,99526.99
2019-03-31T13:58:38.709Z,99515.47
2019-03-31T14:01:07.290Z,99523.72
2019-03-31T14:03:35.762Z,99519.77
2019-03-31T14:06:04.169Z,99515.15
2019-03-31T14:08:32.551Z,99513.75
2019-03-31T14:11:02.912Z,99505.95
2019-03-31T14:13:32.338Z,99504.55
2019-03-31T14:16:00.748Z,99507.23
2019-03-31T14:18:29.149Z,99504.34
2019-03-31T14:20:57.461Z,99506.32
2019-03-31T14:23:25.911Z,99503.98
2019-03-31T14:25:57.074Z,99501.36
2019-03-31T14:28:25.454Z,99498.96
2019-03-31T14:30:54.209Z,99495.11
2019-03-31T14:33:22.784Z,99494.22
2019-03-31T14:35:51.193Z,99500.59
2019-03-31T14:38:20.053Z,99492.04
2019-03-31T14:40:48.529Z,99491.72
2019-03-31T14:43:17.042Z,99488.91
2019-03-31T14:45:45.640Z,99496.44
2019-03-31T14:48:14.000Z,99491.56
2019-03-31T14:50:42.694Z,99493.20
2019-03-31T14:53:11.062Z,99492.47
2019-03-31T14:55:39.472Z,99493.29
2019-03-31T14:58:08.606Z,99494.83
2019-03-31T15:00:37.268Z,99489.28
2019-03-31T15:03:05.712Z,99496.31
2019-03-31T15:05:34.367Z,99488.66
2019-03-31T15:08:03.287Z,99491.69
2019-03-31T15:10:31.697Z,99490.03
2019-03-31T15:13:00.138Z,99491.02
2019-03-31T15:15:28.562Z,99497.39
2019-03-31T15:17:57.184Z,99494.98
2019-03-31T15:20:25.964Z,99493.91
2019-03-31T15:22:54.334Z,99493.34
2019-03-31T15:25:22.677Z,99488.77
2019-03-31T15:27:51.910Z,99489.97
2019-03-31T15:30:20.398Z,99498.63
2019-03-31T15:32:48.833Z,99495.02
2019-03-31T15:35:17.167Z,99493.32
2019-03-31T15:37:45.542Z,99495.98
2019-03-31T15:40:13.948Z,99491.30
2019-03-31T15:42:42.394Z,99499.91
2019-03-31T15:45:11.480Z,99497.30
2019-03-31T15:47:40.168Z,99498.63
2019-03-31T15:50:08.765Z,99495.52
2019-03-31T15:52:37.154Z,99501.41
2019-03-31T15:55:07.384Z,99499.63
2019-03-31T15:57:36.171Z,99501.41
2019-03-31T16:00:07.646Z,99505.22
2019-03-31T16:02:36.024Z,99500.12
2019-03-31T16:05:08.036Z,99493.03
2019-03-31T16:07:36.475Z,99489.63
2019-03-31T16:10:06.365Z,99497.02
2019-03-31T16:12:34.908Z,99491.77
2019-03-31T16:15:05.164Z,99494.41
2019-03-31T16:17:33.535Z,99491.68
2019-03-31T16:20:01.885Z,99487.20
2019-03-31T16:22:30.471Z,99485.86
2019-03-31T16:25:17.049Z,99488.13
2019-03-31T16:27:45.476Z,99491.59
2019-03-31T16:30:14.060Z,99488.02
2019-03-31T16:32:42.662Z,99491.09
2019-03-31T16:35:11.080Z,99494.28
2019-03-31T16:37:39.525Z,99482.69
2019-03-31T16:40:08.036Z,99487.98
2019-03-31T16:42:36.410Z,99490.67
2019-03-31T16:45:06.697Z,99489.34
2019-03-31T16:47:35.078Z,99490.59
2019-03-31T16:50:04.871Z,99492.75
2019-03-31T16:52:33.549Z,99493.34
2019-03-31T16:55:02.457Z,99496.11
2019-03-31T16:57:30.948Z,99498.55
2019-03-31T16:59:59.492Z,99494.54
2019-03-31T17:02:27.913Z,99499.37
2019-03-31T17:04:56.334Z,99499.52
2019-03-31T17:07:24.644Z,99509.28
2019-03-31T17:09:53.086Z,99509.12
2019-03-31T17:12:22.020Z,99503.38
2019-03-31T17:14:50.393Z,99505.66
2019-03-31T17:17:18.745Z,99503.76
2019-03-31T17:19:47.313Z,99507.02
2019-03-31T17:22:15.838Z,99510.53
2019-03-31T17:24:44.216Z,99509.68
2019-03-31T17:27:14.263Z,99500.54
2019-03-31T17:29:42.706Z,99512.92
2019-03-31T17:32:11.122Z,99506.80
2019-03-31T17:34:39.501Z,99506.93
2019-03-31T17:37:07.916Z,99510.51
2019-03-31T17:39:36.284Z,99508.73
2019-03-31T17:42:04.700Z,99514.61
2019-03-31T17:44:33.203Z,99512.56
2019-03-31T17:47:01.769Z,99515.67
2019-03-31T17:49:30.221Z,99512.43
2019-03-31T17:52:01.220Z,99515.88
2019-03-31T17:54:29.465Z,99516.00
2019-03-31T17:57:02.121Z,99521.54
2019-03-31T17:59:30.561Z,99517.32
2019-03-31T18:01:59.376Z,99526.72
2019-03-31T18:04:27.968Z,99531.88
2019-03-31T18:06:56.375Z,99534.16
2019-03-31T18:09:25.025Z,99543.41
2019-03-31T18:11:53.459Z,99549.03
2019-03-31T18:14:22.017Z,99557.80
2019-03-31T18:16:50.577Z,99556.63
2019-03-31T18:19:18.979Z,99564.05
2019-03-31T18:21:47.312Z,99565.59
2019-03-31T18:24:15.740Z,99566.57
2019-03-31T18:26:44.275Z,99573.02
2019-03-31T18:29:12.737Z,99578.13
2019-03-31T18:31:41.094Z,99582.08
2019-03-31T18:34:09.530Z,99585.88
2019-03-31T18:36:37.992Z,99586.24
2019-03-31T18:39:08.170Z,99595.22
2019-03-31T18:41:36.661Z,99589.64
2019-03-31T18:44:05.191Z,99592.39
2019-03-31T18:46:33.619Z,99591.64
2019-03-31T18:49:01.963Z,99598.70
2019-03-31T18:51:30.561Z,99603.36
2019-03-31T18:54:06.652Z,99599.99
2019-03-31T18:56:42.934Z,99608.72
2019-03-31T18:59:18.558Z,99611.56
2019-03-31T19:01:48.746Z,99614.70
2019-03-31T19:04:18.888Z,99613.69
2019-03-31T19:06:51.692Z,99612.97
2019-03-31T19:09:27.876Z,99616.41
2019-03-31T19:12:06.803Z,99631.02
2019-03-31T19:14:42.283Z,99621.13
2019-03-31T19:17:14.818Z,99623.77
2019-03-31T19:19:44.805Z,99626.65
2019-03-31T19:22:34.753Z,99634.98
2019-03-31T19:25:13.439Z,99643.00
2019-03-31T19:27:59.695Z,99639.84
2019-03-31T19:30:46.296Z,99648.23
2019-03-31T19:33:22.174Z,99643.63
2019-03-31T19:36:04.321Z,99645.04
2019-03-31T19:38:40.758Z,99650.77
2019-03-31T19:41:20.986Z,99654.92
2019-03-31T19:44:03.156Z,99657.00
2019-03-31T19:46:38.301Z,99653.62
2019-03-31T19:49:23.844Z,99657.98
2019-03-31T19:51:53.881Z,99659.10
2019-03-31T19:54:23.862Z,99658.67
2019-03-31T19:56:56.894Z,99661.76
2019-03-31T19:59:42.965Z,99658.19
2019-03-31T20:02:14.783Z,99659.70
2019-03-31T20:04:47.935Z,99669.03
2019-03-31T20:07:23.675Z,99665.18
2019-03-31T20:09:53.836Z,99668.02
2019-03-31T20:12:27.059Z,99669.82
2019-03-31T20:15:13.713Z,99669.92
2019-03-31T20:17:47.021Z,99675.58
2019-03-31T20:20:33.583Z,99677.45
2019-03-31T20:23:06.532Z,99677.39
2019-03-31T20:25:39.760Z,99684.72
2019-03-31T20:28:18.770Z,99698.58
2019-03-31T20:30:48.773Z,99694.37
2019-03-31T20:33:24.585Z,99692.28
2019-03-31T20:35:56.995Z,99694.48
2019-03-31T20:38:41.856Z,99698.63
2019-03-31T20:41:11.831Z,99699.20
2019-03-31T20:43:55.552Z,99700.52
2019-03-31T20:46:25.796Z,99701.00
2019-03-31T20:48:54.515Z,99700.08
2019-03-31T20:51:23.389Z,99696.86
2019-03-31T20:53:52.009Z,99700.56
2019-03-31T20:56:20.706Z,99698.56
2019-03-31T20:58:49.646Z,99699.30
2019-03-31T21:01:18.531Z,99695.35
2019-03-31T21:03:48.436Z,99697.34
2019-03-31T21:06:16.955Z,99697.19
2019-03-31T21:08:45.982Z,99702.27
2019-03-31T21:11:14.547Z,99698.86
2019-03-31T21:13:43.314Z,99705.28
2019-03-31T21:16:13.420Z,99696.42
2019-03-31T21:18:42.702Z,99701.52
2019-03-31T21:21:11.494Z,99698.22
2019-03-31T21:23:42.944Z,99704.73
2019-03-31T21:26:11.746Z,99702.48
2019-03-31T21:28:40.463Z,99698.16
2019-03-31T21:31:10.192Z,99702.48
2019-03-31T21:33:38.963Z,99699.21
2019-03-31T21:36:07.455Z,99705.13
2019-03-31T21:38:36.423Z,99695.42
2019-03-31T21:41:05.168Z,99699.50
2019-03-31T21:43:33.613Z,99701.75
2019-03-31T21:46:02.077Z,99701.58
2019-03-31T21:48:30.700Z,99706.11
2019-03-31T21:50:59.288Z,99705.25
2019-03-31T21:53:30.045Z,99711.26
2019-03-31T21:55:58.633Z,99708.07
2019-03-31T21:58:27.095Z,99711.56
2019-03-31T22:00:57.912Z,99711.20
2019-03-31T22:03:26.452Z,99703.47
2019-03-31T22:05:54.943Z,99710.51
2019-03-31T22:08:23.941Z,99704.79
2019-03-31T22:10:52.360Z,99706.88
2019-03-31T22:13:21.300Z,99710.81
2019-03-31T22:15:49.793Z,99714.48
2019-03-31T22:18:18.170Z,99718.44
2019-03-31T22:20:47.400Z,99712.70
2019-03-31T22:23:15.994Z,99708.18
2019-03-31T22:25:44.542Z,99716.00
2019-03-31T22:28:12.888Z,99709.22
2019-03-31T22:30:41.261Z,99715.08
2019-03-31T22:33:09.613Z,99717.13
2019-03-31T22:35:38.067Z,99715.91
2019-03-31T22:38:06.413Z,99717.42
2019-03-31T22:40:34.792Z,99719.30
2019-03-31T22:43:03.148Z,99711.78
2019-03-31T22:45:31.594Z,99718.93
2019-03-31T22:48:00.018Z,99719.69
2019-03-31T22:50:28.400Z,99710.76
2019-03-31T22:52:56.751Z,99713.05
2019-03-31T22:55:25.131Z,99713.20
2019-03-31T22:57:53.479Z,99727.75
2019-03-31T23:00:23.576Z,99719.11
2019-03-31T23:02:51.921Z,99711.22
2019-03-31T23:05:20.301Z,99720.20
2019-03-31T23:07:48.712Z,99723.58
2019-03-31T23:10:17.093Z,99731.20
2019-03-31T23:12:45.436Z,99719.84
2019-03-31T23:15:13.955Z,99722.38
2019-03-31T23:17:42.323Z,99717.66
2019-03-31T23:20:10.918Z,99717.01
2019-03-31T23:22:39.347Z,99713.45
2019-03-31T23:25:07.795Z,99711.92
2019-03-31T23:27:36.209Z,99715.69
2019-03-31T23:30:07.910Z,99717.63
2019-03-31T23:32:36.394Z,99716.05
2019-03-31T23:35:06.216Z,99711.33
2019-03-31T23:37:34.635Z,99715.04
2019-03-31T23:40:03.358Z,99714.47
2019-03-31T23:42:31.712Z,99719.52
2019-03-31T23:45:00.100Z,99721.10
2019-03-31T23:47:28.439Z,99716.80
2019-03-31T23:49:56.826Z,99706.64
2019-03-31T23:52:25.248Z,99706.98
2019-03-31T23:54:53.633Z,99708.52
2019-03-31T23:57:23.700Z,99703.25
2019-03-31T23:59:52.078Z,99697.70
